sensor_id;sensor_type;location;lat;lon;timestamp;P1;durP1;ratioP1;P2;durP2;ratioP2
16735;SDS011;17990;49.548;9.730;2023-02-15T00:01:57;28.40;;;15.73;;
16735;SDS011;17990;49.548;9.730;2023-02-15T00:04:24;27.47;;;14.77;;
16735;SDS011;17990;49.548;9.730;2023-02-15T00:07:11;27.07;;;15.37;;
16735;SDS011;17990;49.548;9.730;2023-02-15T00:09:39;26.37;;;14.60;;
16735;SDS011;17990;49.548;9.730;2023-02-15T00:12:06;27.80;;;15.57;;
16735;SDS011;17990;49.548;9.730;2023-02-15T00:14:35;27.67;;;15.43;;
16735;SDS011;17990;49.548;9.730;2023-02-15T00:17:03;27.10;;;15.67;;
16735;SDS011;17990;49.548;9.730;2023-02-15T00:19:30;26.63;;;15.37;;
16735;SDS011;17990;49.548;9.730;2023-02-15T00:21:57;26.57;;;15.47;;
16735;SDS011;17990;49.548;9.730;2023-02-15T00:24:25;27.73;;;14.53;;
16735;SDS011;17990;49.548;9.730;2023-02-15T00:26:52;28.47;;;15.83;;
16735;SDS011;17990;49.548;9.730;2023-02-15T00:29:20;27.20;;;15.50;;
16735;SDS011;17990;49.548;9.730;2023-02-15T00:31:49;29.83;;;16.33;;
16735;SDS011;17990;49.548;9.730;2023-02-15T00:34:17;27.13;;;15.47;;
16735;SDS011;17990;49.548;9.730;2023-02-15T00:36:46;29.17;;;15.87;;
16735;SDS011;17990;49.548;9.730;2023-02-15T00:39:13;29.67;;;15.37;;
16735;SDS011;17990;49.548;9.730;2023-02-15T00:41:41;29.00;;;15.97;;
16735;SDS011;17990;49.548;9.730;2023-02-15T00:44:09;29.37;;;15.03;;
16735;SDS011;17990;49.548;9.730;2023-02-15T00:46:36;27.70;;;16.13;;
16735;SDS011;17990;49.548;9.730;2023-02-15T00:49:05;28.00;;;15.13;;
16735;SDS011;17990;49.548;9.730;2023-02-15T00:51:32;32.33;;;16.80;;
16735;SDS011;17990;49.548;9.730;2023-02-15T00:53:59;29.87;;;16.20;;
16735;SDS011;17990;49.548;9.730;2023-02-15T00:56:27;28.23;;;15.97;;
16735;SDS011;17990;49.548;9.730;2023-02-15T00:58:54;28.30;;;16.10;;
16735;SDS011;17990;49.548;9.730;2023-02-15T01:01:21;27.60;;;14.57;;
16735;SDS011;17990;49.548;9.730;2023-02-15T01:03:50;25.37;;;15.00;;
16735;SDS011;17990;49.548;9.730;2023-02-15T01:06:19;26.70;;;15.20;;
16735;SDS011;17990;49.548;9.730;2023-02-15T01:08:46;27.27;;;15.73;;
16735;SDS011;17990;49.548;9.730;2023-02-15T01:11:14;26.80;;;15.43;;
16735;SDS011;17990;49.548;9.730;2023-02-15T01:13:46;28.90;;;15.50;;
16735;SDS011;17990;49.548;9.730;2023-02-15T01:16:15;25.80;;;14.47;;
16735;SDS011;17990;49.548;9.730;2023-02-15T01:18:42;24.63;;;14.57;;
16735;SDS011;17990;49.548;9.730;2023-02-15T01:21:10;25.17;;;14.60;;
16735;SDS011;17990;49.548;9.730;2023-02-15T01:23:40;25.17;;;14.57;;
16735;SDS011;17990;49.548;9.730;2023-02-15T01:26:07;25.07;;;15.40;;
16735;SDS011;17990;49.548;9.730;2023-02-15T01:28:35;27.83;;;14.87;;
16735;SDS011;17990;49.548;9.730;2023-02-15T01:31:06;24.73;;;14.30;;
16735;SDS011;17990;49.548;9.730;2023-02-15T01:33:34;25.77;;;13.87;;
16735;SDS011;17990;49.548;9.730;2023-02-15T01:36:02;24.10;;;13.97;;
16735;SDS011;17990;49.548;9.730;2023-02-15T01:38:30;25.07;;;13.53;;
16735;SDS011;17990;49.548;9.730;2023-02-15T01:40:58;22.80;;;13.07;;
16735;SDS011;17990;49.548;9.730;2023-02-15T01:43:40;24.53;;;14.17;;
16735;SDS011;17990;49.548;9.730;2023-02-15T01:46:08;22.73;;;14.00;;
16735;SDS011;17990;49.548;9.730;2023-02-15T01:48:43;24.27;;;13.97;;
16735;SDS011;17990;49.548;9.730;2023-02-15T01:51:13;23.40;;;13.23;;
16735;SDS011;17990;49.548;9.730;2023-02-15T01:53:42;25.10;;;14.20;;
16735;SDS011;17990;49.548;9.730;2023-02-15T01:56:14;20.97;;;12.70;;
16735;SDS011;17990;49.548;9.730;2023-02-15T01:58:43;23.90;;;13.90;;
16735;SDS011;17990;49.548;9.730;2023-02-15T02:01:10;23.33;;;13.70;;
16735;SDS011;17990;49.548;9.730;2023-02-15T02:03:38;25.37;;;13.70;;
16735;SDS011;17990;49.548;9.730;2023-02-15T02:06:10;23.17;;;13.70;;
16735;SDS011;17990;49.548;9.730;2023-02-15T02:08:38;23.37;;;13.53;;
16735;SDS011;17990;49.548;9.730;2023-02-15T02:11:09;22.73;;;12.67;;
16735;SDS011;17990;49.548;9.730;2023-02-15T02:13:38;26.13;;;14.23;;
16735;SDS011;17990;49.548;9.730;2023-02-15T02:16:07;26.07;;;13.93;;
16735;SDS011;17990;49.548;9.730;2023-02-15T02:18:41;24.30;;;14.30;;
16735;SDS011;17990;49.548;9.730;2023-02-15T02:21:21;23.40;;;13.70;;
16735;SDS011;17990;49.548;9.730;2023-02-15T02:24:27;29.77;;;16.37;;
16735;SDS011;17990;49.548;9.730;2023-02-15T02:27:15;23.70;;;13.17;;
16735;SDS011;17990;49.548;9.730;2023-02-15T02:33:07;20.50;;;12.43;;
16735;SDS011;17990;49.548;9.730;2023-02-15T02:35:44;22.10;;;12.83;;
16735;SDS011;17990;49.548;9.730;2023-02-15T02:38:19;26.37;;;15.00;;
16735;SDS011;17990;49.548;9.730;2023-02-15T02:40:51;23.50;;;13.57;;
16735;SDS011;17990;49.548;9.730;2023-02-15T02:43:22;22.73;;;12.63;;
16735;SDS011;17990;49.548;9.730;2023-02-15T02:45:52;24.03;;;14.17;;
16735;SDS011;17990;49.548;9.730;2023-02-15T02:48:25;23.97;;;13.53;;
16735;SDS011;17990;49.548;9.730;2023-02-15T02:50:54;24.70;;;13.93;;
16735;SDS011;17990;49.548;9.730;2023-02-15T02:53:21;21.70;;;12.60;;
16735;SDS011;17990;49.548;9.730;2023-02-15T02:55:49;23.00;;;13.23;;
16735;SDS011;17990;49.548;9.730;2023-02-15T02:58:19;21.10;;;12.57;;
16735;SDS011;17990;49.548;9.730;2023-02-15T03:00:50;22.43;;;13.30;;
16735;SDS011;17990;49.548;9.730;2023-02-15T03:03:22;22.80;;;12.97;;
16735;SDS011;17990;49.548;9.730;2023-02-15T03:05:54;23.63;;;13.00;;
16735;SDS011;17990;49.548;9.730;2023-02-15T03:08:26;20.97;;;12.80;;
16735;SDS011;17990;49.548;9.730;2023-02-15T03:10:56;20.97;;;12.27;;
16735;SDS011;17990;49.548;9.730;2023-02-15T03:13:25;20.77;;;12.57;;
16735;SDS011;17990;49.548;9.730;2023-02-15T03:15:53;20.10;;;12.03;;
16735;SDS011;17990;49.548;9.730;2023-02-15T03:18:40;19.20;;;12.00;;
16735;SDS011;17990;49.548;9.730;2023-02-15T03:21:17;20.87;;;12.27;;
16735;SDS011;17990;49.548;9.730;2023-02-15T03:23:48;27.20;;;14.97;;
16735;SDS011;17990;49.548;9.730;2023-02-15T03:26:18;26.00;;;13.67;;
16735;SDS011;17990;49.548;9.730;2023-02-15T03:28:46;22.87;;;11.67;;
16735;SDS011;17990;49.548;9.730;2023-02-15T03:31:15;21.83;;;12.80;;
16735;SDS011;17990;49.548;9.730;2023-02-15T03:33:47;24.90;;;13.80;;
16735;SDS011;17990;49.548;9.730;2023-02-15T03:36:18;25.07;;;14.03;;
16735;SDS011;17990;49.548;9.730;2023-02-15T03:38:49;22.30;;;13.10;;
16735;SDS011;17990;49.548;9.730;2023-02-15T03:41:19;22.97;;;12.83;;
16735;SDS011;17990;49.548;9.730;2023-02-15T03:43:48;19.33;;;12.90;;
16735;SDS011;17990;49.548;9.730;2023-02-15T03:46:19;19.93;;;11.87;;
16735;SDS011;17990;49.548;9.730;2023-02-15T03:48:52;20.57;;;12.43;;
16735;SDS011;17990;49.548;9.730;2023-02-15T03:51:21;21.80;;;12.73;;
16735;SDS011;17990;49.548;9.730;2023-02-15T03:54:01;21.57;;;12.67;;
16735;SDS011;17990;49.548;9.730;2023-02-15T03:56:31;22.50;;;12.97;;
16735;SDS011;17990;49.548;9.730;2023-02-15T03:59:00;20.30;;;12.60;;
16735;SDS011;17990;49.548;9.730;2023-02-15T04:01:46;22.10;;;12.57;;
16735;SDS011;17990;49.548;9.730;2023-02-15T04:04:26;21.57;;;12.33;;
16735;SDS011;17990;49.548;9.730;2023-02-15T04:06:58;23.87;;;13.33;;
16735;SDS011;17990;49.548;9.730;2023-02-15T04:09:26;26.93;;;14.47;;
16735;SDS011;17990;49.548;9.730;2023-02-15T04:12:11;23.27;;;13.43;;
16735;SDS011;17990;49.548;9.730;2023-02-15T04:14:38;21.17;;;13.30;;
16735;SDS011;17990;49.548;9.730;2023-02-15T04:17:23;23.90;;;13.03;;
16735;SDS011;17990;49.548;9.730;2023-02-15T04:19:51;24.77;;;13.30;;
16735;SDS011;17990;49.548;9.730;2023-02-15T04:22:36;22.90;;;13.13;;
16735;SDS011;17990;49.548;9.730;2023-02-15T04:25:21;23.37;;;13.10;;
16735;SDS011;17990;49.548;9.730;2023-02-15T04:27:50;20.27;;;12.30;;
16735;SDS011;17990;49.548;9.730;2023-02-15T04:30:19;23.67;;;12.83;;
16735;SDS011;17990;49.548;9.730;2023-02-15T04:32:48;21.27;;;12.17;;
16735;SDS011;17990;49.548;9.730;2023-02-15T04:35:16;21.30;;;13.30;;
16735;SDS011;17990;49.548;9.730;2023-02-15T04:37:44;22.93;;;13.17;;
16735;SDS011;17990;49.548;9.730;2023-02-15T04:40:12;21.37;;;12.17;;
16735;SDS011;17990;49.548;9.730;2023-02-15T04:42:40;20.70;;;12.10;;
16735;SDS011;17990;49.548;9.730;2023-02-15T04:45:07;21.00;;;12.60;;
16735;SDS011;17990;49.548;9.730;2023-02-15T04:47:35;22.63;;;12.50;;
16735;SDS011;17990;49.548;9.730;2023-02-15T04:50:02;25.70;;;14.00;;
16735;SDS011;17990;49.548;9.730;2023-02-15T04:52:31;25.83;;;13.90;;
16735;SDS011;17990;49.548;9.730;2023-02-15T04:54:58;21.27;;;12.40;;
16735;SDS011;17990;49.548;9.730;2023-02-15T04:57:26;21.00;;;12.83;;
16735;SDS011;17990;49.548;9.730;2023-02-15T04:59:53;20.13;;;12.23;;
16735;SDS011;17990;49.548;9.730;2023-02-15T05:02:20;22.07;;;12.80;;
16735;SDS011;17990;49.548;9.730;2023-02-15T05:04:47;25.10;;;13.50;;
16735;SDS011;17990;49.548;9.730;2023-02-15T05:07:15;22.73;;;13.07;;
16735;SDS011;17990;49.548;9.730;2023-02-15T05:09:44;26.20;;;14.87;;
16735;SDS011;17990;49.548;9.730;2023-02-15T05:12:11;26.83;;;14.03;;
16735;SDS011;17990;49.548;9.730;2023-02-15T05:14:38;22.63;;;14.13;;
16735;SDS011;17990;49.548;9.730;2023-02-15T05:17:05;21.50;;;12.77;;
16735;SDS011;17990;49.548;9.730;2023-02-15T05:19:32;26.50;;;13.60;;
16735;SDS011;17990;49.548;9.730;2023-02-15T05:22:00;21.60;;;12.40;;
16735;SDS011;17990;49.548;9.730;2023-02-15T05:24:27;21.33;;;12.03;;
16735;SDS011;17990;49.548;9.730;2023-02-15T05:27:13;19.90;;;12.17;;
16735;SDS011;17990;49.548;9.730;2023-02-15T05:29:58;17.43;;;10.80;;
16735;SDS011;17990;49.548;9.730;2023-02-15T05:32:25;19.53;;;12.00;;
16735;SDS011;17990;49.548;9.730;2023-02-15T05:34:52;23.63;;;13.40;;
16735;SDS011;17990;49.548;9.730;2023-02-15T05:37:19;22.20;;;13.03;;
16735;SDS011;17990;49.548;9.730;2023-02-15T05:39:46;20.27;;;11.37;;
16735;SDS011;17990;49.548;9.730;2023-02-15T05:42:15;19.97;;;12.10;;
16735;SDS011;17990;49.548;9.730;2023-02-15T05:44:42;23.93;;;12.80;;
16735;SDS011;17990;49.548;9.730;2023-02-15T05:47:09;20.33;;;11.57;;
16735;SDS011;17990;49.548;9.730;2023-02-15T05:49:36;18.23;;;11.30;;
16735;SDS011;17990;49.548;9.730;2023-02-15T05:52:05;19.13;;;12.07;;
16735;SDS011;17990;49.548;9.730;2023-02-15T05:54:33;19.50;;;11.87;;
16735;SDS011;17990;49.548;9.730;2023-02-15T05:57:00;23.63;;;13.37;;
16735;SDS011;17990;49.548;9.730;2023-02-15T05:59:28;23.23;;;12.87;;
16735;SDS011;17990;49.548;9.730;2023-02-15T06:01:56;26.17;;;14.87;;
16735;SDS011;17990;49.548;9.730;2023-02-15T06:04:23;21.37;;;12.27;;
16735;SDS011;17990;49.548;9.730;2023-02-15T06:06:50;21.17;;;11.27;;
16735;SDS011;17990;49.548;9.730;2023-02-15T06:09:17;24.63;;;11.37;;
16735;SDS011;17990;49.548;9.730;2023-02-15T06:11:45;19.97;;;11.83;;
16735;SDS011;17990;49.548;9.730;2023-02-15T06:14:12;20.20;;;11.83;;
16735;SDS011;17990;49.548;9.730;2023-02-15T06:16:40;23.90;;;13.57;;
16735;SDS011;17990;49.548;9.730;2023-02-15T06:19:08;20.77;;;12.47;;
16735;SDS011;17990;49.548;9.730;2023-02-15T06:21:35;23.47;;;13.63;;
16735;SDS011;17990;49.548;9.730;2023-02-15T06:24:02;27.73;;;13.47;;
16735;SDS011;17990;49.548;9.730;2023-02-15T06:26:30;35.20;;;17.57;;
16735;SDS011;17990;49.548;9.730;2023-02-15T06:28:57;47.13;;;20.53;;
16735;SDS011;17990;49.548;9.730;2023-02-15T06:31:24;41.30;;;19.07;;
16735;SDS011;17990;49.548;9.730;2023-02-15T06:33:54;25.57;;;14.30;;
16735;SDS011;17990;49.548;9.730;2023-02-15T06:36:25;21.63;;;12.63;;
16735;SDS011;17990;49.548;9.730;2023-02-15T06:38:53;25.47;;;14.47;;
16735;SDS011;17990;49.548;9.730;2023-02-15T06:41:20;26.23;;;15.10;;
16735;SDS011;17990;49.548;9.730;2023-02-15T06:43:47;23.47;;;12.63;;
16735;SDS011;17990;49.548;9.730;2023-02-15T06:46:15;25.87;;;14.87;;
16735;SDS011;17990;49.548;9.730;2023-02-15T06:48:42;23.50;;;14.67;;
16735;SDS011;17990;49.548;9.730;2023-02-15T06:51:10;22.53;;;13.33;;
16735;SDS011;17990;49.548;9.730;2023-02-15T06:53:38;21.27;;;11.77;;
16735;SDS011;17990;49.548;9.730;2023-02-15T06:56:07;17.13;;;11.10;;
16735;SDS011;17990;49.548;9.730;2023-02-15T06:58:34;30.07;;;15.90;;
16735;SDS011;17990;49.548;9.730;2023-02-15T07:01:01;22.90;;;13.93;;
16735;SDS011;17990;49.548;9.730;2023-02-15T07:03:29;23.60;;;13.07;;
16735;SDS011;17990;49.548;9.730;2023-02-15T07:05:57;22.70;;;13.57;;
16735;SDS011;17990;49.548;9.730;2023-02-15T07:08:26;24.73;;;14.73;;
16735;SDS011;17990;49.548;9.730;2023-02-15T07:10:54;24.00;;;12.57;;
16735;SDS011;17990;49.548;9.730;2023-02-15T07:13:42;23.90;;;14.33;;
16735;SDS011;17990;49.548;9.730;2023-02-15T07:16:08;25.87;;;14.07;;
16735;SDS011;17990;49.548;9.730;2023-02-15T07:18:36;23.63;;;14.30;;
16735;SDS011;17990;49.548;9.730;2023-02-15T07:21:03;22.50;;;13.43;;
16735;SDS011;17990;49.548;9.730;2023-02-15T07:23:34;23.97;;;13.23;;
16735;SDS011;17990;49.548;9.730;2023-02-15T07:26:01;22.67;;;13.33;;
16735;SDS011;17990;49.548;9.730;2023-02-15T07:28:28;24.93;;;12.63;;
16735;SDS011;17990;49.548;9.730;2023-02-15T07:30:55;22.07;;;12.97;;
16735;SDS011;17990;49.548;9.730;2023-02-15T07:33:23;26.57;;;13.03;;
16735;SDS011;17990;49.548;9.730;2023-02-15T07:35:52;22.03;;;12.27;;
16735;SDS011;17990;49.548;9.730;2023-02-15T07:38:22;27.07;;;12.87;;
16735;SDS011;17990;49.548;9.730;2023-02-15T07:40:51;21.73;;;11.70;;
16735;SDS011;17990;49.548;9.730;2023-02-15T07:43:22;21.77;;;11.90;;
16735;SDS011;17990;49.548;9.730;2023-02-15T07:45:50;23.03;;;12.03;;
16735;SDS011;17990;49.548;9.730;2023-02-15T07:48:17;23.30;;;13.20;;
16735;SDS011;17990;49.548;9.730;2023-02-15T07:50:44;23.73;;;13.33;;
16735;SDS011;17990;49.548;9.730;2023-02-15T07:53:11;19.13;;;11.20;;
16735;SDS011;17990;49.548;9.730;2023-02-15T07:55:38;21.80;;;12.90;;
16735;SDS011;17990;49.548;9.730;2023-02-15T07:58:07;22.20;;;12.80;;
16735;SDS011;17990;49.548;9.730;2023-02-15T08:00:34;22.70;;;12.93;;
16735;SDS011;17990;49.548;9.730;2023-02-15T08:03:22;20.93;;;12.27;;
16735;SDS011;17990;49.548;9.730;2023-02-15T08:05:51;22.77;;;13.33;;
16735;SDS011;17990;49.548;9.730;2023-02-15T08:08:22;22.80;;;13.50;;
16735;SDS011;17990;49.548;9.730;2023-02-15T08:10:57;21.60;;;12.60;;
16735;SDS011;17990;49.548;9.730;2023-02-15T08:13:44;23.97;;;12.37;;
16735;SDS011;17990;49.548;9.730;2023-02-15T08:16:28;23.50;;;14.47;;
16735;SDS011;17990;49.548;9.730;2023-02-15T08:18:57;22.70;;;13.93;;
16735;SDS011;17990;49.548;9.730;2023-02-15T08:21:26;25.20;;;13.73;;
16735;SDS011;17990;49.548;9.730;2023-02-15T08:23:54;21.10;;;13.33;;
16735;SDS011;17990;49.548;9.730;2023-02-15T08:26:22;25.73;;;14.93;;
16735;SDS011;17990;49.548;9.730;2023-02-15T08:28:51;30.47;;;13.53;;
16735;SDS011;17990;49.548;9.730;2023-02-15T08:31:18;32.03;;;16.63;;
16735;SDS011;17990;49.548;9.730;2023-02-15T08:33:46;31.07;;;15.13;;
16735;SDS011;17990;49.548;9.730;2023-02-15T08:36:15;22.43;;;13.17;;
16735;SDS011;17990;49.548;9.730;2023-02-15T08:38:43;35.07;;;13.70;;
16735;SDS011;17990;49.548;9.730;2023-02-15T08:41:11;21.40;;;12.00;;
16735;SDS011;17990;49.548;9.730;2023-02-15T08:43:39;66.90;;;18.07;;
16735;SDS011;17990;49.548;9.730;2023-02-15T08:46:09;24.73;;;14.57;;
16735;SDS011;17990;49.548;9.730;2023-02-15T08:48:37;31.00;;;13.10;;
16735;SDS011;17990;49.548;9.730;2023-02-15T08:51:05;24.00;;;13.27;;
16735;SDS011;17990;49.548;9.730;2023-02-15T08:53:33;29.90;;;13.87;;
16735;SDS011;17990;49.548;9.730;2023-02-15T08:56:00;21.83;;;12.47;;
16735;SDS011;17990;49.548;9.730;2023-02-15T08:58:28;26.00;;;13.03;;
16735;SDS011;17990;49.548;9.730;2023-02-15T09:00:56;25.60;;;13.23;;
16735;SDS011;17990;49.548;9.730;2023-02-15T09:03:25;19.20;;;11.77;;
16735;SDS011;17990;49.548;9.730;2023-02-15T09:05:56;20.13;;;11.93;;
16735;SDS011;17990;49.548;9.730;2023-02-15T09:08:24;18.37;;;11.63;;
16735;SDS011;17990;49.548;9.730;2023-02-15T09:10:52;18.43;;;11.47;;
16735;SDS011;17990;49.548;9.730;2023-02-15T09:13:19;22.87;;;13.10;;
16735;SDS011;17990;49.548;9.730;2023-02-15T09:15:46;29.70;;;12.07;;
16735;SDS011;17990;49.548;9.730;2023-02-15T09:18:13;24.00;;;12.77;;
16735;SDS011;17990;49.548;9.730;2023-02-15T09:20:43;27.27;;;12.83;;
16735;SDS011;17990;49.548;9.730;2023-02-15T09:23:10;26.63;;;12.40;;
16735;SDS011;17990;49.548;9.730;2023-02-15T09:25:39;29.17;;;14.33;;
16735;SDS011;17990;49.548;9.730;2023-02-15T09:28:07;28.37;;;12.77;;
16735;SDS011;17990;49.548;9.730;2023-02-15T09:30:34;17.27;;;10.83;;
16735;SDS011;17990;49.548;9.730;2023-02-15T09:33:01;16.57;;;10.57;;
16735;SDS011;17990;49.548;9.730;2023-02-15T09:35:29;19.17;;;11.50;;
16735;SDS011;17990;49.548;9.730;2023-02-15T09:37:57;20.33;;;11.13;;
16735;SDS011;17990;49.548;9.730;2023-02-15T09:40:24;16.87;;;11.37;;
16735;SDS011;17990;49.548;9.730;2023-02-15T09:42:54;19.30;;;12.03;;
16735;SDS011;17990;49.548;9.730;2023-02-15T09:45:34;23.57;;;11.50;;
16735;SDS011;17990;49.548;9.730;2023-02-15T09:48:15;20.13;;;12.10;;
16735;SDS011;17990;49.548;9.730;2023-02-15T09:50:52;20.23;;;11.27;;
16735;SDS011;17990;49.548;9.730;2023-02-15T09:53:35;21.33;;;11.77;;
16735;SDS011;17990;49.548;9.730;2023-02-15T09:56:10;19.87;;;11.60;;
16735;SDS011;17990;49.548;9.730;2023-02-15T09:58:46;22.40;;;11.43;;
16735;SDS011;17990;49.548;9.730;2023-02-15T10:01:20;28.67;;;13.60;;
16735;SDS011;17990;49.548;9.730;2023-02-15T10:03:58;19.17;;;11.13;;
16735;SDS011;17990;49.548;9.730;2023-02-15T10:06:35;19.03;;;11.73;;
16735;SDS011;17990;49.548;9.730;2023-02-15T10:12:18;27.67;;;13.90;;
16735;SDS011;17990;49.548;9.730;2023-02-15T10:15:03;19.60;;;11.43;;
16735;SDS011;17990;49.548;9.730;2023-02-15T10:17:58;21.37;;;12.27;;
16735;SDS011;17990;49.548;9.730;2023-02-15T12:12:24;22.07;;;12.10;;
16735;SDS011;17990;49.548;9.730;2023-02-15T12:14:53;14.83;;;10.93;;
16735;SDS011;17990;49.548;9.730;2023-02-15T12:17:21;16.87;;;11.90;;
16735;SDS011;17990;49.548;9.730;2023-02-15T12:19:50;17.80;;;12.20;;
16735;SDS011;17990;49.548;9.730;2023-02-15T12:22:20;18.27;;;12.73;;
16735;SDS011;17990;49.548;9.730;2023-02-15T12:24:50;16.70;;;11.67;;
16735;SDS011;17990;49.548;9.730;2023-02-15T12:27:19;19.67;;;12.90;;
16735;SDS011;17990;49.548;9.730;2023-02-15T12:29:49;24.77;;;12.20;;
16735;SDS011;17990;49.548;9.730;2023-02-15T12:32:18;19.00;;;12.07;;
16735;SDS011;17990;49.548;9.730;2023-02-15T12:34:48;24.40;;;12.60;;
16735;SDS011;17990;49.548;9.730;2023-02-15T12:37:17;20.10;;;11.87;;
16735;SDS011;17990;49.548;9.730;2023-02-15T12:39:51;24.17;;;12.93;;
16735;SDS011;17990;49.548;9.730;2023-02-15T12:42:20;20.50;;;12.90;;
16735;SDS011;17990;49.548;9.730;2023-02-15T12:45:00;26.57;;;12.70;;
16735;SDS011;17990;49.548;9.730;2023-02-15T12:47:29;23.63;;;12.67;;
16735;SDS011;17990;49.548;9.730;2023-02-15T12:50:05;16.23;;;11.90;;
16735;SDS011;17990;49.548;9.730;2023-02-15T12:52:43;16.63;;;12.30;;
16735;SDS011;17990;49.548;9.730;2023-02-15T12:55:18;22.93;;;12.77;;
16735;SDS011;17990;49.548;9.730;2023-02-15T12:57:49;23.10;;;13.10;;
16735;SDS011;17990;49.548;9.730;2023-02-15T13:00:31;20.07;;;13.60;;
16735;SDS011;17990;49.548;9.730;2023-02-15T13:02:59;20.17;;;12.80;;
16735;SDS011;17990;49.548;9.730;2023-02-15T13:05:29;25.47;;;12.63;;
16735;SDS011;17990;49.548;9.730;2023-02-15T13:07:59;18.37;;;13.17;;
16735;SDS011;17990;49.548;9.730;2023-02-15T13:10:28;20.77;;;13.97;;
16735;SDS011;17990;49.548;9.730;2023-02-15T13:12:57;19.67;;;12.63;;
16735;SDS011;17990;49.548;9.730;2023-02-15T13:15:28;19.53;;;12.73;;
16735;SDS011;17990;49.548;9.730;2023-02-15T13:17:59;21.87;;;13.27;;
16735;SDS011;17990;49.548;9.730;2023-02-15T13:20:27;26.87;;;14.93;;
16735;SDS011;17990;49.548;9.730;2023-02-15T13:22:56;20.27;;;13.33;;
16735;SDS011;17990;49.548;9.730;2023-02-15T13:25:25;19.83;;;12.90;;
16735;SDS011;17990;49.548;9.730;2023-02-15T13:27:56;18.67;;;13.07;;
16735;SDS011;17990;49.548;9.730;2023-02-15T13:30:27;20.90;;;13.10;;
16735;SDS011;17990;49.548;9.730;2023-02-15T13:32:59;18.60;;;12.77;;
16735;SDS011;17990;49.548;9.730;2023-02-15T13:35:33;19.13;;;12.50;;
16735;SDS011;17990;49.548;9.730;2023-02-15T13:38:06;22.63;;;13.03;;
16735;SDS011;17990;49.548;9.730;2023-02-15T13:40:43;19.20;;;14.40;;
16735;SDS011;17990;49.548;9.730;2023-02-15T13:43:25;24.00;;;14.53;;
16735;SDS011;17990;49.548;9.730;2023-02-15T13:46:07;21.40;;;13.90;;
16735;SDS011;17990;49.548;9.730;2023-02-15T13:48:46;22.27;;;15.00;;
16735;SDS011;17990;49.548;9.730;2023-02-15T13:51:20;22.80;;;14.40;;
16735;SDS011;17990;49.548;9.730;2023-02-15T13:53:56;26.37;;;13.53;;
16735;SDS011;17990;49.548;9.730;2023-02-15T13:56:38;21.83;;;13.57;;
16735;SDS011;17990;49.548;9.730;2023-02-15T13:59:15;19.27;;;13.90;;
16735;SDS011;17990;49.548;9.730;2023-02-15T14:01:55;22.27;;;14.30;;
16735;SDS011;17990;49.548;9.730;2023-02-15T14:04:41;25.63;;;16.97;;
16735;SDS011;17990;49.548;9.730;2023-02-15T14:07:39;28.27;;;17.20;;
16735;SDS011;17990;49.548;9.730;2023-02-15T14:10:20;24.33;;;15.87;;
16735;SDS011;17990;49.548;9.730;2023-02-15T14:13:05;23.77;;;14.80;;
16735;SDS011;17990;49.548;9.730;2023-02-15T14:15:57;25.67;;;15.33;;
16735;SDS011;17990;49.548;9.730;2023-02-15T14:18:28;20.27;;;13.87;;
16735;SDS011;17990;49.548;9.730;2023-02-15T14:21:02;21.77;;;12.77;;
16735;SDS011;17990;49.548;9.730;2023-02-15T14:23:36;19.17;;;12.40;;
16735;SDS011;17990;49.548;9.730;2023-02-15T14:26:14;21.50;;;13.77;;
16735;SDS011;17990;49.548;9.730;2023-02-15T14:28:45;18.23;;;13.60;;
16735;SDS011;17990;49.548;9.730;2023-02-15T14:31:16;20.40;;;12.87;;
16735;SDS011;17990;49.548;9.730;2023-02-15T14:33:50;20.60;;;12.97;;
16735;SDS011;17990;49.548;9.730;2023-02-15T14:36:21;19.27;;;13.47;;
16735;SDS011;17990;49.548;9.730;2023-02-15T14:38:52;29.43;;;14.80;;
16735;SDS011;17990;49.548;9.730;2023-02-15T14:41:25;21.00;;;13.87;;
16735;SDS011;17990;49.548;9.730;2023-02-15T14:43:56;21.60;;;12.70;;
16735;SDS011;17990;49.548;9.730;2023-02-15T14:46:29;20.33;;;13.27;;
16735;SDS011;17990;49.548;9.730;2023-02-15T14:49:03;20.10;;;13.57;;
16735;SDS011;17990;49.548;9.730;2023-02-15T14:51:55;24.07;;;13.60;;
16735;SDS011;17990;49.548;9.730;2023-02-15T14:57:26;19.83;;;13.47;;
16735;SDS011;17990;49.548;9.730;2023-02-15T14:59:56;20.00;;;13.27;;
16735;SDS011;17990;49.548;9.730;2023-02-15T15:02:25;22.53;;;13.23;;
16735;SDS011;17990;49.548;9.730;2023-02-15T15:04:59;20.20;;;14.57;;
16735;SDS011;17990;49.548;9.730;2023-02-15T15:07:37;25.73;;;14.80;;
16735;SDS011;17990;49.548;9.730;2023-02-15T15:13:33;25.87;;;15.83;;
16735;SDS011;17990;49.548;9.730;2023-02-15T15:22:29;19.93;;;13.13;;
16735;SDS011;17990;49.548;9.730;2023-02-15T15:24:57;17.43;;;12.63;;
16735;SDS011;17990;49.548;9.730;2023-02-15T15:27:38;20.07;;;14.03;;
16735;SDS011;17990;49.548;9.730;2023-02-15T15:33:36;23.30;;;14.07;;
16735;SDS011;17990;49.548;9.730;2023-02-15T15:36:27;22.33;;;13.53;;
16735;SDS011;17990;49.548;9.730;2023-02-15T15:39:22;23.53;;;13.93;;
16735;SDS011;17990;49.548;9.730;2023-02-15T15:42:08;20.50;;;13.93;;
16735;SDS011;17990;49.548;9.730;2023-02-15T15:44:55;24.30;;;14.03;;
16735;SDS011;17990;49.548;9.730;2023-02-15T15:47:49;23.37;;;14.77;;
16735;SDS011;17990;49.548;9.730;2023-02-15T15:50:22;20.37;;;14.10;;
16735;SDS011;17990;49.548;9.730;2023-02-15T15:52:50;23.50;;;15.33;;
16735;SDS011;17990;49.548;9.730;2023-02-15T15:55:19;22.73;;;14.63;;
16735;SDS011;17990;49.548;9.730;2023-02-15T15:57:48;24.83;;;14.37;;
16735;SDS011;17990;49.548;9.730;2023-02-15T16:00:24;25.60;;;15.73;;
16735;SDS011;17990;49.548;9.730;2023-02-15T16:02:57;27.50;;;16.83;;
16735;SDS011;17990;49.548;9.730;2023-02-15T16:05:26;22.80;;;15.57;;
16735;SDS011;17990;49.548;9.730;2023-02-15T16:07:53;24.90;;;15.10;;
16735;SDS011;17990;49.548;9.730;2023-02-15T16:10:21;23.90;;;15.57;;
16735;SDS011;17990;49.548;9.730;2023-02-15T16:12:50;23.07;;;15.07;;
16735;SDS011;17990;49.548;9.730;2023-02-15T16:15:19;23.90;;;15.20;;
16735;SDS011;17990;49.548;9.730;2023-02-15T16:17:49;25.97;;;16.27;;
16735;SDS011;17990;49.548;9.730;2023-02-15T16:20:21;24.57;;;15.83;;
16735;SDS011;17990;49.548;9.730;2023-02-15T16:22:54;25.53;;;15.40;;
16735;SDS011;17990;49.548;9.730;2023-02-15T16:25:27;24.13;;;15.43;;
16735;SDS011;17990;49.548;9.730;2023-02-15T16:28:05;27.50;;;16.33;;
16735;SDS011;17990;49.548;9.730;2023-02-15T16:30:33;25.97;;;16.20;;
16735;SDS011;17990;49.548;9.730;2023-02-15T16:33:05;22.23;;;15.00;;
16735;SDS011;17990;49.548;9.730;2023-02-15T16:35:34;26.13;;;16.13;;
16735;SDS011;17990;49.548;9.730;2023-02-15T16:38:03;27.93;;;17.57;;
16735;SDS011;17990;49.548;9.730;2023-02-15T16:40:36;27.87;;;17.70;;
16735;SDS011;17990;49.548;9.730;2023-02-15T16:43:10;28.17;;;17.73;;
16735;SDS011;17990;49.548;9.730;2023-02-15T16:45:43;28.43;;;18.10;;
16735;SDS011;17990;49.548;9.730;2023-02-15T16:48:12;44.97;;;22.07;;
16735;SDS011;17990;49.548;9.730;2023-02-15T16:50:45;42.33;;;22.20;;
16735;SDS011;17990;49.548;9.730;2023-02-15T16:53:17;31.10;;;18.43;;
16735;SDS011;17990;49.548;9.730;2023-02-15T16:55:47;33.63;;;19.13;;
16735;SDS011;17990;49.548;9.730;2023-02-15T16:58:17;30.03;;;18.37;;
16735;SDS011;17990;49.548;9.730;2023-02-15T17:00:49;26.50;;;17.50;;